Time;durP1;ratioP1;P1;durP2;ratioP2;P2;SDS_P1;SDS_P2;PMS_P1;PMS_P2;Temp;Humidity;BMP_temperature;BMP_pressure;BME280_temperature;BME280_humidity;BME280_pressure;Samples;Min_cycle;Max_cycle;Signal;HPM_P1;HPM_P2
2022/07/23 00:01:16;;;;;;;;;23.67;22.67;;;;;-145.45;100.00;57426.63;5092573;27;45252;-78
2022/07/23 00:03:41;;;;;;;;;32.00;25.33;;;;;-145.45;100.00;57426.63;5070058;28;45338;-78
2022/07/23 00:06:07;;;;;;;;;30.00;25.67;;;;;-145.45;100.00;57426.63;5079191;27;45370;-77
2022/07/23 00:08:32;;;;;;;;;26.00;22.00;;;;;-145.45;100.00;57426.63;5088122;27;46150;-77
2022/07/23 00:10:57;;;;;;;;;30.67;28.33;;;;;-145.45;100.00;57426.63;5078986;28;44764;-77
2022/07/23 00:13:23;;;;;;;;;29.67;25.33;;;;;-145.45;100.00;57426.63;5088157;27;45458;-77
2022/07/23 00:15:48;;;;;;;;;23.67;19.33;;;;;-145.45;100.00;57426.63;5085059;27;45419;-77
2022/07/23 00:18:13;;;;;;;;;29.33;23.00;;;;;-145.45;100.00;57426.63;5092308;27;45431;-77
2022/07/23 00:20:39;;;;;;;;;31.00;25.33;;;;;-145.45;100.00;57426.63;5087634;27;45469;-78
2022/07/23 00:23:04;;;;;;;;;33.67;30.33;;;;;-145.45;100.00;57426.63;5089846;27;45461;-78
2022/07/23 00:25:29;;;;;;;;;34.33;30.67;;;;;-145.45;100.00;57426.63;5088937;27;45434;-77
2022/07/23 00:27:55;;;;;;;;;38.67;32.33;;;;;-145.45;100.00;57426.63;5069263;27;47017;-78
2022/07/23 00:30:20;;;;;;;;;34.67;28.67;;;;;-145.45;100.00;57426.63;5084395;27;45353;-78
2022/07/23 00:32:51;;;;;;;;;32.67;29.67;;;;;-145.45;100.00;57426.63;5085904;27;45560;-78
2022/07/23 00:35:20;;;;;;;;;37.33;32.33;;;;;-145.45;100.00;57426.63;5085345;27;45245;-76
2022/07/23 00:37:46;;;;;;;;;30.67;30.00;;;;;-145.45;100.00;57426.63;5077925;27;47014;-77
2022/07/23 00:40:12;;;;;;;;;34.33;29.67;;;;;-145.45;100.00;57426.63;5089293;27;45323;-78
2022/07/23 00:42:38;;;;;;;;;40.33;30.00;;;;;-145.45;100.00;57426.63;5084809;27;45550;-78
2022/07/23 00:45:04;;;;;;;;;34.00;30.67;;;;;-145.45;100.00;57426.63;5100653;27;45368;-78
2022/07/23 00:47:29;;;;;;;;;33.67;31.33;;;;;-145.45;100.00;57426.63;5087150;27;46490;-78
2022/07/23 00:49:55;;;;;;;;;37.33;32.00;;;;;-145.45;100.00;57426.63;5087804;27;45421;-78
2022/07/23 00:52:20;;;;;;;;;32.33;30.67;;;;;-145.45;100.00;57426.63;5084072;27;45287;-78
2022/07/23 00:54:46;;;;;;;;;35.33;31.00;;;;;-145.45;100.00;57426.63;5087733;27;45244;-78
2022/07/23 00:57:12;;;;;;;;;31.00;27.67;;;;;-145.45;100.00;57426.63;5082921;27;45477;-78
2022/07/23 00:59:40;;;;;;;;;28.33;23.33;;;;;-145.45;100.00;57426.63;5076819;27;45473;-77
2022/07/23 01:02:06;;;;;;;;;34.00;29.00;;;;;-145.45;100.00;57426.63;5082103;27;45459;-77
2022/07/23 01:04:31;;;;;;;;;31.33;30.33;;;;;-145.45;100.00;57426.63;5078077;27;46557;-77
2022/07/23 01:06:58;;;;;;;;;39.00;34.33;;;;;-145.45;100.00;57426.63;5081477;27;46149;-77
2022/07/23 01:09:24;;;;;;;;;35.00;31.00;;;;;-145.45;100.00;57426.63;5089746;27;46738;-77
2022/07/23 01:11:51;;;;;;;;;32.67;28.33;;;;;-145.45;100.00;57426.63;5081503;27;45269;-77
2022/07/23 01:14:18;;;;;;;;;35.00;28.33;;;;;-145.45;100.00;57426.63;5089224;27;45253;-78
2022/07/23 01:16:45;;;;;;;;;26.33;24.00;;;;;-145.45;100.00;57426.63;5081009;27;46074;-77
2022/07/23 01:19:11;;;;;;;;;32.33;29.00;;;;;-145.45;100.00;57426.63;5098488;27;45416;-78
2022/07/23 01:21:40;;;;;;;;;29.00;26.33;;;;;-145.45;100.00;57426.63;5078457;27;45512;-78
2022/07/23 01:24:06;;;;;;;;;27.67;26.00;;;;;-145.45;100.00;57426.63;5088340;27;45294;-78
2022/07/23 01:26:31;;;;;;;;;25.67;22.33;;;;;-145.45;100.00;57426.63;5097016;27;46438;-78
2022/07/23 01:28:57;;;;;;;;;24.33;21.67;;;;;-145.45;100.00;57426.63;5093598;27;44784;-77
2022/07/23 01:31:22;;;;;;;;;27.00;24.00;;;;;-145.45;100.00;57426.63;5069747;27;45602;-77
2022/07/23 01:33:48;;;;;;;;;24.00;23.00;;;;;-145.45;100.00;57426.63;5080446;27;45498;-77
2022/07/23 01:36:14;;;;;;;;;22.33;20.33;;;;;-145.45;100.00;57426.63;5083593;27;45698;-77
2022/07/23 01:38:39;;;;;;;;;35.67;26.00;;;;;-145.45;100.00;57426.63;5084248;27;45356;-77
2022/07/23 01:41:05;;;;;;;;;24.00;22.33;;;;;-145.45;100.00;57426.63;5081227;27;45245;-77
2022/07/23 01:43:30;;;;;;;;;24.00;21.33;;;;;-145.45;100.00;57426.63;5076338;27;45527;-77
2022/07/23 01:45:55;;;;;;;;;28.00;24.00;;;;;-145.45;100.00;57426.63;5081145;27;45459;-78
2022/07/23 01:48:21;;;;;;;;;27.00;24.67;;;;;-145.45;100.00;57426.63;5090849;27;45257;-77
2022/07/23 01:50:47;;;;;;;;;29.00;26.00;;;;;-145.45;100.00;57426.63;5081191;27;45277;-77
2022/07/23 01:53:13;;;;;;;;;23.67;22.00;;;;;-145.45;100.00;57426.63;5090495;27;45203;-77
2022/07/23 01:55:38;;;;;;;;;23.00;21.33;;;;;-145.45;100.00;57426.63;5082233;27;46590;-77
2022/07/23 01:58:03;;;;;;;;;25.00;23.33;;;;;-145.45;100.00;57426.63;5089252;27;45322;-77
2022/07/23 02:00:29;;;;;;;;;22.33;21.00;;;;;-145.45;100.00;57426.63;5097862;27;45300;-76
2022/07/23 02:02:54;;;;;;;;;26.33;23.00;;;;;-145.45;100.00;57426.63;5078659;27;45206;-77
2022/07/23 02:05:20;;;;;;;;;27.67;26.33;;;;;-145.45;100.00;57426.63;5088296;27;46305;-77
2022/07/23 02:07:45;;;;;;;;;25.67;24.67;;;;;-145.45;100.00;57426.63;5097414;27;45268;-77
2022/07/23 02:10:10;;;;;;;;;21.67;21.00;;;;;-145.45;100.00;57426.63;5079755;27;45198;-76
2022/07/23 02:12:36;;;;;;;;;23.00;22.00;;;;;-145.45;100.00;57426.63;5083433;27;46673;-77
2022/07/23 02:15:01;;;;;;;;;25.33;25.33;;;;;-145.45;100.00;57426.63;5081208;27;45303;-77
2022/07/23 02:17:26;;;;;;;;;22.33;21.33;;;;;-145.45;100.00;57426.63;5083554;27;45248;-77
2022/07/23 02:19:52;;;;;;;;;24.00;22.00;;;;;-145.45;100.00;57426.63;5087821;27;45267;-78
2022/07/23 02:22:17;;;;;;;;;22.33;21.33;;;;;-145.45;100.00;57426.63;5082390;27;45523;-77
2022/07/23 02:24:42;;;;;;;;;25.67;22.00;;;;;-145.45;100.00;57426.63;5087334;27;46155;-78
2022/07/23 02:27:08;;;;;;;;;22.00;21.00;;;;;-145.45;100.00;57426.63;5080878;27;45505;-77
2022/07/23 02:29:33;;;;;;;;;19.33;17.33;;;;;-145.45;100.00;57426.63;5095098;27;45374;-77
2022/07/23 02:31:58;;;;;;;;;21.33;19.33;;;;;-145.45;100.00;57426.63;5080226;27;45328;-77
2022/07/23 02:34:24;;;;;;;;;27.67;24.00;;;;;-145.45;100.00;57426.63;5077332;27;47008;-76
2022/07/23 02:36:49;;;;;;;;;20.67;20.00;;;;;-145.45;100.00;57426.63;5075724;27;45360;-77
2022/07/23 02:39:14;;;;;;;;;27.00;22.00;;;;;-145.45;100.00;57426.63;5082762;27;45383;-77
2022/07/23 02:41:40;;;;;;;;;26.67;20.67;;;;;-145.45;100.00;57426.63;5080065;27;45340;-77
2022/07/23 02:44:06;;;;;;;;;21.33;19.33;;;;;-145.45;100.00;57426.63;5090145;27;46446;-77
2022/07/23 02:46:32;;;;;;;;;21.00;18.67;;;;;-145.45;100.00;57426.63;5068430;28;45373;-77
2022/07/23 02:48:57;;;;;;;;;23.33;22.00;;;;;-145.45;100.00;57426.63;5089809;27;45396;-77
2022/07/23 02:51:22;;;;;;;;;29.00;23.67;;;;;-145.45;100.00;57426.63;5080012;28;45404;-76
2022/07/23 02:53:48;;;;;;;;;21.00;20.67;;;;;-145.45;100.00;57426.63;5091432;27;46319;-76
2022/07/23 02:56:13;;;;;;;;;21.67;20.67;;;;;-145.45;100.00;57426.63;5087228;27;45308;-76
2022/07/23 02:58:38;;;;;;;;;21.33;20.00;;;;;-145.45;100.00;57426.63;5091078;27;45263;-77
2022/07/23 03:01:04;;;;;;;;;23.67;21.00;;;;;-145.45;100.00;57426.63;5065291;27;46072;-76
2022/07/23 03:03:29;;;;;;;;;21.00;17.33;;;;;-145.45;100.00;57426.63;5097117;27;45794;-76
2022/07/23 03:05:54;;;;;;;;;20.67;19.33;;;;;-145.45;100.00;57426.63;5086263;27;45460;-76
2022/07/23 03:08:20;;;;;;;;;18.33;16.67;;;;;-145.45;100.00;57426.63;5072296;27;45250;-76
2022/07/23 03:10:45;;;;;;;;;20.33;16.67;;;;;-145.45;100.00;57426.63;5086857;27;45253;-76
2022/07/23 03:13:10;;;;;;;;;19.67;19.00;;;;;-145.45;100.00;57426.63;5085668;27;46063;-76
2022/07/23 03:15:36;;;;;;;;;18.67;17.33;;;;;-145.45;100.00;57426.63;5083878;27;45306;-76
2022/07/23 03:18:01;;;;;;;;;21.67;17.00;;;;;-145.45;100.00;57426.63;5085194;27;45472;-76
2022/07/23 03:20:26;;;;;;;;;27.00;21.67;;;;;-145.45;100.00;57426.63;5082714;27;45657;-76
2022/07/23 03:22:52;;;;;;;;;22.67;19.00;;;;;-145.45;100.00;57426.63;5075277;27;46759;-76
2022/07/23 03:25:17;;;;;;;;;22.33;20.33;;;;;-145.45;100.00;57426.63;5080184;27;45244;-76
2022/07/23 03:27:45;;;;;;;;;21.33;18.00;;;;;-145.45;100.00;57426.63;5092240;27;45412;-76
2022/07/23 03:30:11;;;;;;;;;21.00;19.33;;;;;-145.45;100.00;57426.63;5071533;28;46068;-76
2022/07/23 03:32:37;;;;;;;;;25.33;21.00;;;;;-145.45;100.00;57426.63;5095334;27;45374;-76
2022/07/23 03:35:02;;;;;;;;;23.00;21.00;;;;;-145.45;100.00;57426.63;5082783;27;45395;-75
2022/07/23 03:37:28;;;;;;;;;21.67;19.33;;;;;-145.45;100.00;57426.63;5073790;27;45438;-75
2022/07/23 03:39:53;;;;;;;;;19.33;17.00;;;;;-145.45;100.00;57426.63;5079963;27;45237;-75
2022/07/23 03:42:19;;;;;;;;;24.00;20.33;;;;;-145.45;100.00;57426.63;5098293;27;45389;-76
2022/07/23 03:44:44;;;;;;;;;19.33;18.67;;;;;-145.45;100.00;57426.63;5095567;27;45280;-75
2022/07/23 03:47:09;;;;;;;;;18.33;17.67;;;;;-145.45;100.00;57426.63;5086176;27;45450;-76
2022/07/23 03:49:35;;;;;;;;;19.67;19.33;;;;;-145.45;100.00;57426.63;5079434;27;45474;-75
2022/07/23 03:52:01;;;;;;;;;28.00;26.33;;;;;-145.45;100.00;57426.63;5089969;27;46283;-76
2022/07/23 03:54:26;;;;;;;;;26.00;22.00;;;;;-145.45;100.00;57426.63;5095427;27;45291;-76
2022/07/23 03:56:51;;;;;;;;;23.00;21.00;;;;;-145.45;100.00;57426.63;5082912;27;45356;-76
2022/07/23 03:59:17;;;;;;;;;22.67;18.33;;;;;-145.45;100.00;57426.63;5090740;27;45598;-76
2022/07/23 04:01:42;;;;;;;;;25.67;24.00;;;;;-145.45;100.00;57426.63;5082519;27;45934;-75
2022/07/23 04:04:08;;;;;;;;;24.33;24.33;;;;;-145.45;100.00;57426.63;5076474;28;45751;-75
2022/07/23 04:06:34;;;;;;;;;21.33;21.33;;;;;-145.45;100.00;57426.63;5099026;27;45296;-75
2022/07/23 04:08:59;;;;;;;;;19.00;19.00;;;;;-145.45;100.00;57426.63;5075761;28;46806;-75
2022/07/23 04:11:25;;;;;;;;;27.67;24.00;;;;;-145.45;100.00;57426.63;5085740;27;46292;-75
2022/07/23 04:13:50;;;;;;;;;20.33;18.67;;;;;-145.45;100.00;57426.63;5090121;27;45260;-75
2022/07/23 04:16:16;;;;;;;;;21.00;18.67;;;;;-145.45;100.00;57426.63;5082510;27;45301;-75
2022/07/23 04:18:41;;;;;;;;;24.33;20.00;;;;;-145.45;100.00;57426.63;5094672;27;45410;-74
2022/07/23 04:21:06;;;;;;;;;23.33;22.33;;;;;-145.45;100.00;57426.63;5090254;27;45264;-74
2022/07/23 04:23:32;;;;;;;;;25.67;21.33;;;;;-145.45;100.00;57426.63;5089287;27;45450;-75
2022/07/23 04:25:57;;;;;;;;;24.33;21.67;;;;;-145.45;100.00;57426.63;5079180;27;45728;-75
2022/07/23 04:28:22;;;;;;;;;26.33;22.00;;;;;-145.45;100.00;57426.63;5068141;27;46672;-75
2022/07/23 04:30:48;;;;;;;;;19.00;18.00;;;;;-145.45;100.00;57426.63;5083199;27;45337;-74
2022/07/23 04:33:13;;;;;;;;;22.00;21.33;;;;;-145.45;100.00;57426.63;5086130;27;45460;-75
2022/07/23 04:35:39;;;;;;;;;22.33;21.00;;;;;-145.45;100.00;57426.63;5087906;27;45413;-75
2022/07/23 04:38:04;;;;;;;;;21.33;19.33;;;;;-145.45;100.00;57426.63;5084265;27;45494;-75
2022/07/23 04:40:29;;;;;;;;;21.67;20.67;;;;;-145.45;100.00;57426.63;5089615;27;45212;-74
2022/07/23 04:42:55;;;;;;;;;21.33;20.00;;;;;-145.45;100.00;57426.63;5081624;27;45306;-74
2022/07/23 04:45:21;;;;;;;;;26.67;20.00;;;;;-145.45;100.00;57426.63;5088525;27;45313;-75
2022/07/23 04:47:46;;;;;;;;;27.00;22.33;;;;;-145.45;100.00;57426.63;5085348;27;45955;-74
2022/07/23 04:50:12;;;;;;;;;19.33;19.00;;;;;-145.45;100.00;57426.63;5098951;27;46552;-74
2022/07/23 04:52:37;;;;;;;;;21.00;19.67;;;;;-145.45;100.00;57426.63;5086724;27;45293;-74
2022/07/23 04:55:03;;;;;;;;;19.67;19.67;;;;;-145.45;100.00;57426.63;5098096;27;45302;-74
2022/07/23 04:57:28;;;;;;;;;23.33;21.67;;;;;-145.45;100.00;57426.63;5070008;27;45860;-74
2022/07/23 04:59:54;;;;;;;;;21.00;18.33;;;;;-145.45;100.00;57426.63;5081325;27;46750;-75
2022/07/23 05:02:19;;;;;;;;;22.00;20.67;;;;;-145.45;100.00;57426.63;5084236;27;45411;-74
2022/07/23 05:04:44;;;;;;;;;22.00;20.33;;;;;-145.45;100.00;57426.63;5094105;27;45735;-74
2022/07/23 05:07:10;;;;;;;;;23.67;19.33;;;;;-145.45;100.00;57426.63;5084341;27;45654;-74
2022/07/23 05:09:35;;;;;;;;;21.67;18.00;;;;;-145.45;100.00;57426.63;5090363;27;46310;-75
2022/07/23 05:12:01;;;;;;;;;22.00;22.00;;;;;-145.45;100.00;57426.63;5081448;27;45292;-74
2022/07/23 05:14:27;;;;;;;;;30.67;23.67;;;;;-145.45;100.00;57426.63;5087118;27;45486;-74
2022/07/23 05:16:53;;;;;;;;;23.00;20.67;;;;;-145.45;100.00;57426.63;5094574;27;45549;-74
2022/07/23 05:19:18;;;;;;;;;27.67;24.67;;;;;-145.45;100.00;57426.63;5087033;27;45829;-74
2022/07/23 05:21:43;;;;;;;;;21.00;20.33;;;;;-145.45;100.00;57426.63;5082196;27;45155;-74
2022/07/23 05:24:09;;;;;;;;;21.33;20.00;;;;;-145.45;100.00;57426.63;5087354;27;45544;-75
2022/07/23 05:26:34;;;;;;;;;24.00;24.00;;;;;-145.45;100.00;57426.63;5083991;27;45384;-74
2022/07/23 05:28:59;;;;;;;;;23.33;20.67;;;;;-145.45;100.00;57426.63;5092892;27;46277;-74
2022/07/23 05:31:25;;;;;;;;;22.33;19.33;;;;;-145.45;100.00;57426.63;5088081;27;45186;-74
2022/07/23 05:33:50;;;;;;;;;24.00;22.67;;;;;-145.45;100.00;57426.63;5081740;27;45375;-74
2022/07/23 05:36:15;;;;;;;;;22.33;20.67;;;;;-145.45;100.00;57426.63;5095546;27;45557;-74
2022/07/23 05:38:41;;;;;;;;;24.33;21.67;;;;;-145.45;100.00;57426.63;5085110;27;46022;-74
2022/07/23 05:41:06;;;;;;;;;27.00;22.67;;;;;-145.45;100.00;57426.63;5094146;27;45608;-75
2022/07/23 05:43:31;;;;;;;;;22.00;22.00;;;;;-145.45;100.00;57426.63;5090844;27;45604;-74
2022/07/23 05:45:57;;;;;;;;;23.00;21.67;;;;;-145.45;100.00;57426.63;5094058;27;45449;-74
2022/07/23 05:48:22;;;;;;;;;27.33;24.00;;;;;-145.45;100.00;57426.63;5090603;27;46678;-74
2022/07/23 05:50:48;;;;;;;;;19.33;19.33;;;;;-145.45;100.00;57426.63;5083775;27;45206;-74
2022/07/23 05:53:13;;;;;;;;;26.33;22.33;;;;;-145.45;100.00;57426.63;5086178;27;45385;-75
2022/07/23 05:55:38;;;;;;;;;29.00;27.00;;;;;-145.45;100.00;57426.63;5083753;27;45415;-74
2022/07/23 05:58:04;;;;;;;;;32.67;27.67;;;;;-145.45;100.00;57426.63;5086080;27;45469;-75
2022/07/23 06:00:30;;;;;;;;;31.67;28.67;;;;;-145.45;100.00;57426.63;5083572;27;45355;-74
2022/07/23 06:02:55;;;;;;;;;30.00;28.00;;;;;-145.45;100.00;57426.63;5086875;27;45515;-74
2022/07/23 06:05:21;;;;;;;;;30.33;29.67;;;;;-145.45;100.00;57426.63;5088078;27;45365;-74
2022/07/23 06:07:47;;;;;;;;;43.67;32.33;;;;;-145.45;100.00;57426.63;5094321;27;45551;-74
2022/07/23 06:10:12;;;;;;;;;32.00;30.00;;;;;-145.45;100.00;57426.63;5087336;27;45332;-74
2022/07/23 06:12:38;;;;;;;;;41.67;35.67;;;;;-145.45;100.00;57426.63;5096812;27;45584;-75
2022/07/23 06:15:04;;;;;;;;;41.67;31.33;;;;;-145.45;100.00;57426.63;5076089;27;45917;-74
2022/07/23 06:17:29;;;;;;;;;48.33;38.00;;;;;-145.45;100.00;57426.63;5081830;27;47097;-75
2022/07/23 06:19:55;;;;;;;;;48.33;36.00;;;;;-145.45;100.00;57426.63;5088781;27;45189;-74
2022/07/23 06:22:21;;;;;;;;;46.00;37.00;;;;;-145.45;100.00;57426.63;5082095;27;45455;-73
2022/07/23 06:24:47;;;;;;;;;51.00;37.67;;;;;-145.45;100.00;57426.63;5088704;27;45435;-72
2022/07/23 06:27:12;;;;;;;;;41.67;36.00;;;;;-145.45;100.00;57426.63;5080879;27;45427;-73
2022/07/23 06:29:38;;;;;;;;;53.00;41.00;;;;;-145.45;100.00;57426.63;5077295;27;45302;-73
2022/07/23 06:32:04;;;;;;;;;51.75;38.25;;;;;-145.45;100.00;57426.63;5084635;27;45474;-73
2022/07/23 06:34:29;;;;;;;;;49.33;39.00;;;;;-145.45;100.00;57426.63;5092913;27;45659;-72
2022/07/23 06:36:54;;;;;;;;;50.33;41.00;;;;;-145.45;100.00;57426.63;5094338;27;45419;-73
2022/07/23 06:39:20;;;;;;;;;47.25;36.00;;;;;-145.45;100.00;57426.63;5091867;27;45327;-73
2022/07/23 06:41:45;;;;;;;;;51.75;40.50;;;;;-145.45;100.00;57426.63;5083550;27;45385;-72
2022/07/23 06:44:10;;;;;;;;;52.25;41.50;;;;;-145.45;100.00;57426.63;5095733;27;45378;-73
2022/07/23 06:46:36;;;;;;;;;54.00;41.67;;;;;-145.45;100.00;57426.63;5079792;27;45346;-73
2022/07/23 06:49:01;;;;;;;;;53.50;41.75;;;;;-145.45;100.00;57426.63;5088033;27;45415;-74
2022/07/23 06:51:26;;;;;;;;;55.25;43.50;;;;;-145.45;100.00;57426.63;5080134;27;45366;-74
2022/07/23 06:53:52;;;;;;;;;59.00;41.75;;;;;-145.45;100.00;57426.63;5075675;27;45668;-73
2022/07/23 06:56:17;;;;;;;;;52.67;42.00;;;;;-145.45;100.00;57426.63;5077748;27;47925;-73
2022/07/23 06:58:42;;;;;;;;;56.50;42.50;;;;;-145.45;100.00;57426.63;5095931;27;45473;-74
2022/07/23 07:01:08;;;;;;;;;51.75;41.50;;;;;-145.45;100.00;57426.63;5089622;27;45377;-73
2022/07/23 07:03:33;;;;;;;;;56.25;43.50;;;;;-145.45;100.00;57426.63;5077559;27;45965;-73
2022/07/23 07:05:59;;;;;;;;;47.33;40.00;;;;;-145.45;100.00;57426.63;5090484;27;46081;-73
2022/07/23 07:08:24;;;;;;;;;60.25;44.25;;;;;-145.45;100.00;57426.63;5089382;27;45297;-74
2022/07/23 07:10:49;;;;;;;;;56.75;45.75;;;;;-145.45;100.00;57426.63;5084480;27;45171;-73
2022/07/23 07:13:15;;;;;;;;;58.50;44.25;;;;;-145.45;100.00;57426.63;5072258;27;45375;-73
2022/07/23 07:15:41;;;;;;;;;51.75;41.75;;;;;-145.45;100.00;57426.63;5083170;27;45317;-73
2022/07/23 07:18:06;;;;;;;;;52.75;41.75;;;;;-145.45;100.00;57426.63;5084945;27;45271;-74
2022/07/23 07:20:31;;;;;;;;;50.00;40.33;;;;;-145.45;100.00;57426.63;5082102;27;45340;-74
2022/07/23 07:22:57;;;;;;;;;53.67;41.33;;;;;-145.45;100.00;57426.63;5083521;27;45296;-73
2022/07/23 07:25:22;;;;;;;;;53.33;41.33;;;;;-145.45;100.00;57426.63;5086879;27;45307;-74
2022/07/23 07:27:47;;;;;;;;;50.75;39.75;;;;;-145.45;100.00;57426.63;5075899;27;45300;-74
2022/07/23 07:30:13;;;;;;;;;53.25;42.00;;;;;-145.45;100.00;57426.63;5079553;27;45288;-73
2022/07/23 07:32:39;;;;;;;;;57.00;43.00;;;;;-145.45;100.00;57426.63;5081548;27;45347;-74
2022/07/23 07:35:05;;;;;;;;;54.33;42.00;;;;;-145.45;100.00;57426.63;5085569;27;45387;-73
2022/07/23 07:37:31;;;;;;;;;55.00;42.67;;;;;-145.45;100.00;57426.63;5080673;27;45748;-71
2022/07/23 07:39:56;;;;;;;;;53.00;40.50;;;;;-145.45;100.00;57426.63;5074782;27;45277;-70
2022/07/23 07:42:22;;;;;;;;;47.75;40.25;;;;;-145.45;100.00;57426.63;5088139;27;45335;-72
2022/07/23 07:44:47;;;;;;;;;51.67;41.67;;;;;-145.45;100.00;57426.63;5058208;27;47202;-73
2022/07/23 07:47:15;;;;;;;;;52.33;41.33;;;;;-145.45;100.00;57426.63;5079234;27;45323;-73
2022/07/23 07:49:40;;;;;;;;;53.50;42.75;;;;;-145.45;100.00;57426.63;5088243;27;45171;-74
2022/07/23 07:52:06;;;;;;;;;50.33;41.33;;;;;-145.45;100.00;57426.63;5068583;28;45424;-74
2022/07/23 07:54:32;;;;;;;;;56.25;43.00;;;;;-145.45;100.00;57426.63;5073442;27;47252;-73
2022/07/23 07:56:57;;;;;;;;;49.00;40.33;;;;;-145.45;100.00;57426.63;5078794;28;45346;-74
2022/07/23 07:59:22;;;;;;;;;49.33;39.67;;;;;-145.45;100.00;57426.63;5089515;27;45481;-74
2022/07/23 08:01:48;;;;;;;;;49.33;38.00;;;;;-145.45;100.00;57426.63;5078794;27;45464;-74
2022/07/23 08:04:13;;;;;;;;;50.67;41.00;;;;;-145.45;100.00;57426.63;5068444;28;48072;-74
2022/07/23 08:06:38;;;;;;;;;48.33;39.67;;;;;-145.45;100.00;57426.63;5084284;27;45418;-72
2022/07/23 08:09:04;;;;;;;;;54.33;40.00;;;;;-145.45;100.00;57426.63;5087584;27;45322;-73
2022/07/23 08:11:29;;;;;;;;;51.67;41.00;;;;;-145.45;100.00;57426.63;5079488;27;45325;-74
2022/07/23 08:13:55;;;;;;;;;48.67;39.67;;;;;-145.45;100.00;57426.63;5088108;27;46950;-74
2022/07/23 08:16:20;;;;;;;;;50.33;38.00;;;;;-145.45;100.00;57426.63;5082240;27;45330;-74
2022/07/23 08:18:45;;;;;;;;;56.00;39.67;;;;;-145.45;100.00;57426.63;5087714;27;45285;-74
2022/07/23 08:21:11;;;;;;;;;48.33;37.00;;;;;-145.45;100.00;57426.63;5081770;27;45225;-74
2022/07/23 08:23:36;;;;;;;;;48.33;39.33;;;;;-145.45;100.00;57426.63;5087332;27;46241;-74
2022/07/23 08:26:02;;;;;;;;;52.33;39.33;;;;;-145.45;100.00;57426.63;5080618;27;45309;-74
2022/07/23 08:28:27;;;;;;;;;47.33;36.00;;;;;-145.45;100.00;57426.63;5086327;27;45753;-73
2022/07/23 08:30:53;;;;;;;;;48.33;39.00;;;;;-145.45;100.00;57426.63;5086649;27;45573;-73
2022/07/23 08:33:19;;;;;;;;;46.33;36.67;;;;;-145.45;100.00;57426.63;5091027;27;45437;-74
2022/07/23 08:35:47;;;;;;;;;50.33;39.33;;;;;-145.45;100.00;57426.63;5091112;27;45219;-74
2022/07/23 08:38:15;;;;;;;;;49.67;37.67;;;;;-145.45;100.00;57426.63;5090122;27;45332;-75
2022/07/23 08:40:44;;;;;;;;;50.00;39.67;;;;;-145.45;100.00;57426.63;5082052;27;45581;-74
2022/07/23 08:43:12;;;;;;;;;48.67;39.00;;;;;-145.45;100.00;57426.63;5066653;28;45460;-74
2022/07/23 08:45:43;;;;;;;;;44.00;35.33;;;;;-145.45;100.00;57426.63;5086222;27;45293;-72
2022/07/23 08:48:13;;;;;;;;;47.33;36.00;;;;;-145.45;100.00;57426.63;5089533;27;45358;-72
2022/07/23 08:50:42;;;;;;;;;49.00;39.00;;;;;-145.45;100.00;57426.63;5081533;27;45381;-72
2022/07/23 08:53:09;;;;;;;;;46.33;38.00;;;;;-145.45;100.00;57426.63;5089516;27;46331;-72
2022/07/23 08:55:34;;;;;;;;;44.67;37.33;;;;;-145.45;100.00;57426.63;5093757;27;45542;-73
2022/07/23 08:58:00;;;;;;;;;48.33;38.00;;;;;-145.45;100.00;57426.63;5071246;27;45394;-72
2022/07/23 09:00:25;;;;;;;;;44.67;36.33;;;;;-145.45;100.00;57426.63;5093044;27;45165;-74
2022/07/23 09:02:51;;;;;;;;;44.67;34.00;;;;;-145.45;100.00;57426.63;5099832;27;45335;-73
2022/07/23 09:05:17;;;;;;;;;43.00;35.67;;;;;-145.45;100.00;57426.63;5091477;27;45293;-74
2022/07/23 09:08:10;;;;;;;;;48.33;36.67;;;;;-145.45;100.00;57426.63;5083919;27;45500;-73
2022/07/23 09:10:48;;;;;;;;;39.67;33.33;;;;;-145.45;100.00;57426.63;5087352;27;45576;-73
2022/07/23 09:13:36;;;;;;;;;43.67;35.00;;;;;-145.45;100.00;57426.63;5075236;27;46933;-74
2022/07/23 09:16:06;;;;;;;;;42.00;35.33;;;;;-145.45;100.00;57426.63;5083367;27;45427;-73
2022/07/23 09:18:39;;;;;;;;;47.00;36.00;;;;;-145.45;100.00;57426.63;5086708;27;45337;-74
2022/07/23 09:21:18;;;;;;;;;46.33;37.67;;;;;-145.45;100.00;57426.63;5082064;27;45250;-74
2022/07/23 09:24:03;;;;;;;;;44.67;33.33;;;;;-145.45;100.00;57426.63;5086314;27;45637;-73
2022/07/23 09:26:46;;;;;;;;;49.33;39.33;;;;;-145.45;100.00;57426.63;5086408;27;45348;-74
2022/07/23 09:29:16;;;;;;;;;48.33;35.00;;;;;-145.45;100.00;57426.63;5099138;27;45394;-73
2022/07/23 09:31:49;;;;;;;;;43.00;34.67;;;;;-145.45;100.00;57426.63;5075394;27;45290;-73
2022/07/23 09:34:24;;;;;;;;;45.67;35.67;;;;;-145.45;100.00;57426.63;5090010;27;46269;-73
2022/07/23 09:36:51;;;;;;;;;40.33;33.00;;;;;-145.45;100.00;57426.63;5070015;27;45447;-74
2022/07/23 09:39:28;;;;;;;;;43.67;33.33;;;;;-145.45;100.00;57426.63;5094613;27;45429;-71
2022/07/23 09:41:54;;;;;;;;;45.00;36.33;;;;;-145.45;100.00;57426.63;5080955;27;45308;-70
2022/07/23 09:44:20;;;;;;;;;39.00;35.00;;;;;-145.45;100.00;57426.63;5093113;27;45194;-70
2022/07/23 09:46:48;;;;;;;;;39.00;35.00;;;;;-145.45;100.00;57426.63;5080209;27;45430;-71
2022/07/23 09:49:19;;;;;;;;;41.33;33.33;;;;;-145.45;100.00;57426.63;5090066;27;45298;-71
2022/07/23 09:51:57;;;;;;;;;44.33;35.33;;;;;-145.45;100.00;57426.63;5080486;27;45368;-69
2022/07/23 09:54:40;;;;;;;;;40.00;32.33;;;;;-145.45;100.00;57426.63;5090002;27;45201;-70
2022/07/23 09:57:16;;;;;;;;;36.67;33.00;;;;;-145.45;100.00;57426.63;5080468;27;45512;-71
2022/07/23 09:59:44;;;;;;;;;41.00;35.00;;;;;-145.45;100.00;57426.63;5074000;27;45510;-71
2022/07/23 10:02:14;;;;;;;;;38.00;34.33;;;;;-145.45;100.00;57426.63;5094865;27;45478;-71
2022/07/23 10:04:41;;;;;;;;;36.33;33.00;;;;;-145.45;100.00;57426.63;5088127;27;46015;-68
2022/07/23 10:07:10;;;;;;;;;36.67;29.33;;;;;-145.45;100.00;57426.63;5075837;27;45345;-67
2022/07/23 10:09:38;;;;;;;;;43.33;35.33;;;;;-145.45;100.00;57426.63;5091604;27;45466;-69
2022/07/23 10:14:53;;;;;;;;;36.00;32.00;;;;;-145.45;100.00;57426.63;5090143;27;45807;-69
2022/07/23 10:17:18;;;;;;;;;32.67;29.67;;;;;-145.45;100.00;57426.63;5080140;27;45337;-68
2022/07/23 10:19:44;;;;;;;;;34.33;31.33;;;;;-145.45;100.00;57426.63;5094795;27;45171;-68
2022/07/23 10:22:29;;;;;;;;;38.33;32.67;;;;;-145.45;100.00;57426.63;5071499;27;45955;-69
2022/07/23 10:25:16;;;;;;;;;33.67;28.67;;;;;-145.45;100.00;57426.63;5077435;27;46529;-69
2022/07/23 10:27:57;;;;;;;;;35.33;31.67;;;;;-145.45;100.00;57426.63;5083133;27;45446;-69
2022/07/23 10:31:01;;;;;;;;;36.33;33.00;;;;;-145.45;100.00;57426.63;5087561;27;45332;-68
2022/07/23 10:33:29;;;;;;;;;38.67;32.33;;;;;-145.45;100.00;57426.63;5088614;27;45272;-69
2022/07/23 10:36:19;;;;;;;;;36.67;30.00;;;;;-145.45;100.00;57426.63;5096972;27;45436;-69
2022/07/23 10:39:03;;;;;;;;;39.00;31.33;;;;;-145.45;100.00;57426.63;5070511;28;45487;-69
2022/07/23 10:41:41;;;;;;;;;35.67;30.00;;;;;-145.45;100.00;57426.63;5094581;27;45378;-69
2022/07/23 10:44:13;;;;;;;;;36.33;30.00;;;;;-145.45;100.00;57426.63;5089226;27;45320;-68
2022/07/23 10:49:35;;;;;;;;;33.33;30.33;;;;;-145.45;100.00;57426.63;5089513;27;45399;-69
2022/07/23 10:52:22;;;;;;;;;37.33;31.33;;;;;-145.45;100.00;57426.63;5080228;27;45229;-69
2022/07/23 10:54:51;;;;;;;;;32.33;28.67;;;;;-145.45;100.00;57426.63;5087183;27;45238;-69
2022/07/23 10:57:27;;;;;;;;;27.67;25.67;;;;;-145.45;100.00;57426.63;5080011;27;45572;-68
2022/07/23 11:02:34;;;;;;;;;27.33;27.00;;;;;-145.45;100.00;57426.63;5082279;27;45453;-68